Overview Statistics Trail Chart Weather Telemetry Raw packets
 

This is the latest recevied weather packets stored in our database for station/object KGRR-WX. If no packets are shown the sender has not sent any weather packets the latest 10 day(s).

<< 11 12 13 14 15 16 17 >>
Time Temp. Humidity Pressure Rain* Wind** Luminosity Snow
1788355810 26.67° C 77% 985.6 hPa 0 mm - - -
1788354912 26.11° C 77% 985.6 hPa 0 mm - - -
1788354010 25.56° C 77% 985.6 hPa 0 mm - - -
1788353108 -17.78° C 100% - 0 mm - - -
1788352210 23.89° C 92% 985 hPa 0 mm - - -
1788351312 22.78° C 92% 985 hPa 0 mm - - -
1788350414 -17.78° C 100% - 0 mm - - -
1788349512 22.22° C 89% 985 hPa 0 mm - - -
1788348605 21.67° C 89% 985 hPa 0 mm - - -
1788347705 21.67° C 89% 985 hPa 0 mm - - -
1788346806 21.67° C 89% 985 hPa 0 mm - - -
1788345905 22.22° C 90% 985.9 hPa 0 mm - - -
1788345005 22.22° C 90% 985.9 hPa 0 mm - - -
1788344105 22.78° C 90% 985.9 hPa 0 mm - - -
1788343207 22.78° C 90% 985.9 hPa 0 mm - - -
1788342305 22.78° C 89% 985.4 hPa 0 mm - - -
1788340505 22.78° C 89% 985.3 hPa 0 mm - - -
1788339606 22.78° C 89% 985.3 hPa 0 mm - - -
1788338705 22.78° C 91% 985.4 hPa 0 mm - - -
1788337805 22.78° C 91% 985.4 hPa 0 mm - - -
1788336905 22.78° C 91% 985.4 hPa 0 mm - - -
1788336005 22.78° C 91% 985.4 hPa 0 mm - - -
1788335105 22.78° C 92% 984.6 hPa 0 mm - - -
1788334203 22.78° C 92% 984.6 hPa 0 mm - - -
1788333305 21.67° C 92% 984.5 hPa 0 mm - - -

* Rain latest hour (hover to see other rain measurements)
** Current wind speed in m/s (hover to see current wind gust speed)